KGXY/GXY METAR and TAF weather

Enter ICAO airport designator
Station Type Date Time Source
KGXY METAR 2019/09/20 09:56 UTC NOAA

KGXY 200956Z AUTO 09006KT 10SM CLR 15/12 A2983 RMK AO2 SLP058 T01500122


Station Type Date Time Source
KGXY Decoded METAR 2019/09/20 09:56 UTC NOAA

Greeley, Greeley-Weld County Airport, CO, United States (KGXY) 40-26N 104-38W
Sep 20, 2019 - 05:56 AM EDT / 2019.09.20 0956 UTC
Wind: from the E (090 degrees) at 7 MPH (6 KT):0
Visibility: 10 mile(s):0
Sky conditions: clear
Temperature: 59.0 F (15.0 C)
Dew Point: 54.0 F (12.2 C)
Relative Humidity: 83%
Pressure (altimeter): 29.83 in. Hg (1010 hPa)
ob: KGXY 200956Z AUTO 09006KT 10SM CLR 15/12 A2983 RMK AO2 SLP058 T01500122
cycle: 10

Station Type Date Time Source
KGXY TAF UTC NOAA

Error!

Example: see airport list